sensor_id;sensor_type;location;lat;lon;timestamp;temperature;humidity
15997;DHT22;8103;51.340;12.326;2022-09-13T00:01:09;15.00;99.90
15997;DHT22;8103;51.340;12.326;2022-09-13T00:03:36;15.00;99.90
15997;DHT22;8103;51.340;12.326;2022-09-13T00:06:15;15.00;99.90
15997;DHT22;8103;51.340;12.326;2022-09-13T00:08:42;14.90;99.90
15997;DHT22;8103;51.340;12.326;2022-09-13T00:11:21;14.90;99.90
15997;DHT22;8103;51.340;12.326;2022-09-13T00:13:49;14.90;99.90
15997;DHT22;8103;51.340;12.326;2022-09-13T00:16:18;14.90;99.90
15997;DHT22;8103;51.340;12.326;2022-09-13T00:18:45;14.90;99.90
15997;DHT22;8103;51.340;12.326;2022-09-13T00:21:16;14.80;99.90
15997;DHT22;8103;51.340;12.326;2022-09-13T00:23:44;14.90;99.90
15997;DHT22;8103;51.340;12.326;2022-09-13T00:26:14;14.80;99.90
15997;DHT22;8103;51.340;12.326;2022-09-13T00:28:41;14.80;99.90
15997;DHT22;8103;51.340;12.326;2022-09-13T00:31:08;14.80;99.90
15997;DHT22;8103;51.340;12.326;2022-09-13T00:33:36;14.70;99.90
15997;DHT22;8103;51.340;12.326;2022-09-13T00:36:08;14.70;99.90
15997;DHT22;8103;51.340;12.326;2022-09-13T00:38:37;14.70;99.90
15997;DHT22;8103;51.340;12.326;2022-09-13T00:41:05;14.60;99.90
15997;DHT22;8103;51.340;12.326;2022-09-13T00:43:51;14.60;99.90
15997;DHT22;8103;51.340;12.326;2022-09-13T00:46:26;14.60;99.90
15997;DHT22;8103;51.340;12.326;2022-09-13T00:49:00;14.60;99.90
15997;DHT22;8103;51.340;12.326;2022-09-13T00:51:29;14.50;99.90
15997;DHT22;8103;51.340;12.326;2022-09-13T00:53:56;14.50;99.90
15997;DHT22;8103;51.340;12.326;2022-09-13T00:56:40;14.40;99.90
15997;DHT22;8103;51.340;12.326;2022-09-13T00:59:12;14.40;99.90
15997;DHT22;8103;51.340;12.326;2022-09-13T01:01:46;14.40;99.90
15997;DHT22;8103;51.340;12.326;2022-09-13T01:04:16;14.40;99.90
15997;DHT22;8103;51.340;12.326;2022-09-13T01:06:44;14.30;99.90
15997;DHT22;8103;51.340;12.326;2022-09-13T01:09:12;14.30;99.90
15997;DHT22;8103;51.340;12.326;2022-09-13T01:11:53;14.30;99.90
15997;DHT22;8103;51.340;12.326;2022-09-13T01:14:31;14.20;99.90
15997;DHT22;8103;51.340;12.326;2022-09-13T01:16:58;14.20;99.90
15997;DHT22;8103;51.340;12.326;2022-09-13T01:19:25;14.20;99.90
15997;DHT22;8103;51.340;12.326;2022-09-13T01:24:48;14.20;99.90
15997;DHT22;8103;51.340;12.326;2022-09-13T01:27:49;14.10;99.90
15997;DHT22;8103;51.340;12.326;2022-09-13T01:30:21;13.90;99.90
15997;DHT22;8103;51.340;12.326;2022-09-13T01:33:08;14.10;99.90
15997;DHT22;8103;51.340;12.326;2022-09-13T01:36:10;14.00;99.90
15997;DHT22;8103;51.340;12.326;2022-09-13T01:38:51;14.00;99.90
15997;DHT22;8103;51.340;12.326;2022-09-13T01:42:23;14.00;99.90
15997;DHT22;8103;51.340;12.326;2022-09-13T01:47:35;14.00;99.90
15997;DHT22;8103;51.340;12.326;2022-09-13T01:50:35;13.90;99.90
15997;DHT22;8103;51.340;12.326;2022-09-13T01:53:39;13.90;99.90
15997;DHT22;8103;51.340;12.326;2022-09-13T01:56:21;14.00;99.90
15997;DHT22;8103;51.340;12.326;2022-09-13T01:59:14;14.00;99.90
15997;DHT22;8103;51.340;12.326;2022-09-13T02:01:55;14.00;99.90
15997;DHT22;8103;51.340;12.326;2022-09-13T02:04:28;14.00;99.90
15997;DHT22;8103;51.340;12.326;2022-09-13T02:07:08;14.00;99.90
15997;DHT22;8103;51.340;12.326;2022-09-13T02:09:41;14.10;99.90
15997;DHT22;8103;51.340;12.326;2022-09-13T02:12:19;14.10;99.90
15997;DHT22;8103;51.340;12.326;2022-09-13T02:15:17;14.20;99.90
15997;DHT22;8103;51.340;12.326;2022-09-13T02:17:59;14.20;99.90
15997;DHT22;8103;51.340;12.326;2022-09-13T02:20:39;14.20;99.90
15997;DHT22;8103;51.340;12.326;2022-09-13T02:23:20;14.20;99.90
15997;DHT22;8103;51.340;12.326;2022-09-13T02:25:50;14.20;99.90
15997;DHT22;8103;51.340;12.326;2022-09-13T02:28:27;14.20;99.90
15997;DHT22;8103;51.340;12.326;2022-09-13T02:30:56;14.20;99.90
15997;DHT22;8103;51.340;12.326;2022-09-13T02:33:30;14.20;99.90
15997;DHT22;8103;51.340;12.326;2022-09-13T02:36:02;14.20;99.90
15997;DHT22;8103;51.340;12.326;2022-09-13T02:38:43;14.20;99.90
15997;DHT22;8103;51.340;12.326;2022-09-13T02:44:30;14.20;99.90
15997;DHT22;8103;51.340;12.326;2022-09-13T02:47:24;14.20;99.90
15997;DHT22;8103;51.340;12.326;2022-09-13T02:55:19;14.10;99.90
15997;DHT22;8103;51.340;12.326;2022-09-13T02:58:05;14.10;99.90
15997;DHT22;8103;51.340;12.326;2022-09-13T03:00:35;14.00;99.90
15997;DHT22;8103;51.340;12.326;2022-09-13T03:03:04;14.00;99.90
15997;DHT22;8103;51.340;12.326;2022-09-13T03:05:32;14.00;99.90
15997;DHT22;8103;51.340;12.326;2022-09-13T03:07:59;14.00;99.90
15997;DHT22;8103;51.340;12.326;2022-09-13T03:10:30;14.00;99.90
15997;DHT22;8103;51.340;12.326;2022-09-13T03:13:09;14.00;99.90
15997;DHT22;8103;51.340;12.326;2022-09-13T03:15:52;14.00;99.90
15997;DHT22;8103;51.340;12.326;2022-09-13T03:24:22;14.00;99.90
15997;DHT22;8103;51.340;12.326;2022-09-13T03:35:36;13.90;99.90
15997;DHT22;8103;51.340;12.326;2022-09-13T03:38:11;13.90;99.90
15997;DHT22;8103;51.340;12.326;2022-09-13T03:40:48;13.90;99.90
15997;DHT22;8103;51.340;12.326;2022-09-13T03:43:44;13.90;99.90
15997;DHT22;8103;51.340;12.326;2022-09-13T03:46:27;14.00;99.90
15997;DHT22;8103;51.340;12.326;2022-09-13T03:48:59;14.00;99.90
15997;DHT22;8103;51.340;12.326;2022-09-13T03:51:28;14.00;99.90
15997;DHT22;8103;51.340;12.326;2022-09-13T03:54:00;14.00;99.90
15997;DHT22;8103;51.340;12.326;2022-09-13T03:56:27;14.10;99.90
15997;DHT22;8103;51.340;12.326;2022-09-13T03:58:54;14.10;99.90
15997;DHT22;8103;51.340;12.326;2022-09-13T04:01:22;14.10;99.90
15997;DHT22;8103;51.340;12.326;2022-09-13T04:03:50;14.10;99.90
15997;DHT22;8103;51.340;12.326;2022-09-13T04:06:22;14.10;99.90
15997;DHT22;8103;51.340;12.326;2022-09-13T04:08:48;14.10;99.90
15997;DHT22;8103;51.340;12.326;2022-09-13T04:11:15;14.10;99.90
15997;DHT22;8103;51.340;12.326;2022-09-13T04:13:42;14.10;99.90
15997;DHT22;8103;51.340;12.326;2022-09-13T04:16:09;14.10;99.90
15997;DHT22;8103;51.340;12.326;2022-09-13T04:18:35;14.00;99.90
15997;DHT22;8103;51.340;12.326;2022-09-13T04:21:02;14.00;99.90
15997;DHT22;8103;51.340;12.326;2022-09-13T04:23:30;14.00;99.90
15997;DHT22;8103;51.340;12.326;2022-09-13T04:26:04;14.00;99.90
15997;DHT22;8103;51.340;12.326;2022-09-13T04:28:31;14.10;99.90
15997;DHT22;8103;51.340;12.326;2022-09-13T04:30:58;14.00;99.90
15997;DHT22;8103;51.340;12.326;2022-09-13T04:33:25;14.00;99.90
15997;DHT22;8103;51.340;12.326;2022-09-13T04:35:58;14.10;99.90
15997;DHT22;8103;51.340;12.326;2022-09-13T04:38:25;14.00;99.90
15997;DHT22;8103;51.340;12.326;2022-09-13T04:40:54;14.00;99.90
15997;DHT22;8103;51.340;12.326;2022-09-13T04:43:21;14.00;99.90
15997;DHT22;8103;51.340;12.326;2022-09-13T04:45:48;14.00;99.90
15997;DHT22;8103;51.340;12.326;2022-09-13T04:48:16;14.00;99.90
15997;DHT22;8103;51.340;12.326;2022-09-13T04:50:43;14.00;99.90
15997;DHT22;8103;51.340;12.326;2022-09-13T04:53:10;14.10;99.90
15997;DHT22;8103;51.340;12.326;2022-09-13T04:55:37;14.10;99.90
15997;DHT22;8103;51.340;12.326;2022-09-13T04:58:04;14.10;99.90
15997;DHT22;8103;51.340;12.326;2022-09-13T05:00:31;14.20;99.90
15997;DHT22;8103;51.340;12.326;2022-09-13T05:02:58;14.30;99.90
15997;DHT22;8103;51.340;12.326;2022-09-13T05:05:25;14.30;99.90
15997;DHT22;8103;51.340;12.326;2022-09-13T05:07:54;14.40;99.90
15997;DHT22;8103;51.340;12.326;2022-09-13T05:10:20;14.40;99.90
15997;DHT22;8103;51.340;12.326;2022-09-13T05:12:47;14.50;99.90
15997;DHT22;8103;51.340;12.326;2022-09-13T05:15:14;14.50;99.90
15997;DHT22;8103;51.340;12.326;2022-09-13T05:17:41;14.60;99.90
15997;DHT22;8103;51.340;12.326;2022-09-13T05:20:08;14.50;99.90
15997;DHT22;8103;51.340;12.326;2022-09-13T05:22:35;14.60;99.90
15997;DHT22;8103;51.340;12.326;2022-09-13T05:25:02;14.60;99.90
15997;DHT22;8103;51.340;12.326;2022-09-13T05:27:29;14.40;99.90
15997;DHT22;8103;51.340;12.326;2022-09-13T05:29:56;14.60;99.90
15997;DHT22;8103;51.340;12.326;2022-09-13T05:32:23;14.60;99.90
15997;DHT22;8103;51.340;12.326;2022-09-13T05:34:49;14.60;99.90
15997;DHT22;8103;51.340;12.326;2022-09-13T05:37:17;14.60;99.90
15997;DHT22;8103;51.340;12.326;2022-09-13T05:39:44;14.70;99.90
15997;DHT22;8103;51.340;12.326;2022-09-13T05:42:31;14.70;99.90
15997;DHT22;8103;51.340;12.326;2022-09-13T05:44:57;14.70;99.90
15997;DHT22;8103;51.340;12.326;2022-09-13T05:47:24;14.80;99.90
15997;DHT22;8103;51.340;12.326;2022-09-13T05:49:51;15.00;99.90
15997;DHT22;8103;51.340;12.326;2022-09-13T05:52:35;15.10;99.90
15997;DHT22;8103;51.340;12.326;2022-09-13T05:55:01;15.20;99.90
15997;DHT22;8103;51.340;12.326;2022-09-13T05:57:28;15.30;99.90
15997;DHT22;8103;51.340;12.326;2022-09-13T05:59:55;15.40;99.90
15997;DHT22;8103;51.340;12.326;2022-09-13T06:02:22;15.50;99.90
15997;DHT22;8103;51.340;12.326;2022-09-13T06:04:48;15.60;99.90
15997;DHT22;8103;51.340;12.326;2022-09-13T06:07:16;15.60;99.90
15997;DHT22;8103;51.340;12.326;2022-09-13T06:09:43;15.80;99.90
15997;DHT22;8103;51.340;12.326;2022-09-13T06:12:10;15.90;99.90
15997;DHT22;8103;51.340;12.326;2022-09-13T06:14:37;15.90;99.90
15997;DHT22;8103;51.340;12.326;2022-09-13T06:17:04;16.00;99.90
15997;DHT22;8103;51.340;12.326;2022-09-13T06:19:31;16.00;99.90
15997;DHT22;8103;51.340;12.326;2022-09-13T06:21:58;16.00;99.90
15997;DHT22;8103;51.340;12.326;2022-09-13T06:24:24;16.00;99.90
15997;DHT22;8103;51.340;12.326;2022-09-13T06:26:51;16.00;99.90
15997;DHT22;8103;51.340;12.326;2022-09-13T06:29:18;16.00;99.90
15997;DHT22;8103;51.340;12.326;2022-09-13T06:31:45;16.00;99.90
15997;DHT22;8103;51.340;12.326;2022-09-13T06:34:12;16.00;99.90
15997;DHT22;8103;51.340;12.326;2022-09-13T06:36:43;16.00;99.90
15997;DHT22;8103;51.340;12.326;2022-09-13T06:39:09;16.00;99.90
15997;DHT22;8103;51.340;12.326;2022-09-13T06:41:36;16.00;99.90
15997;DHT22;8103;51.340;12.326;2022-09-13T06:44:03;16.00;99.90
15997;DHT22;8103;51.340;12.326;2022-09-13T06:46:32;16.00;99.90
15997;DHT22;8103;51.340;12.326;2022-09-13T06:49:03;16.00;99.90
15997;DHT22;8103;51.340;12.326;2022-09-13T06:51:31;16.00;99.90
15997;DHT22;8103;51.340;12.326;2022-09-13T06:53:58;16.00;99.90
15997;DHT22;8103;51.340;12.326;2022-09-13T06:56:33;16.00;99.90
15997;DHT22;8103;51.340;12.326;2022-09-13T06:59:03;16.00;99.90
15997;DHT22;8103;51.340;12.326;2022-09-13T07:01:41;16.10;99.90
15997;DHT22;8103;51.340;12.326;2022-09-13T07:04:16;16.10;99.90
15997;DHT22;8103;51.340;12.326;2022-09-13T07:06:48;16.10;99.90
15997;DHT22;8103;51.340;12.326;2022-09-13T07:09:19;16.10;99.90
15997;DHT22;8103;51.340;12.326;2022-09-13T07:11:48;16.00;99.90
15997;DHT22;8103;51.340;12.326;2022-09-13T07:14:20;16.10;99.90
15997;DHT22;8103;51.340;12.326;2022-09-13T07:16:48;16.10;99.90
15997;DHT22;8103;51.340;12.326;2022-09-13T07:19:20;16.00;99.90
15997;DHT22;8103;51.340;12.326;2022-09-13T07:21:52;16.10;99.90
15997;DHT22;8103;51.340;12.326;2022-09-13T07:24:21;16.20;99.90
15997;DHT22;8103;51.340;12.326;2022-09-13T07:26:48;16.20;99.90
15997;DHT22;8103;51.340;12.326;2022-09-13T07:29:17;16.20;99.90
15997;DHT22;8103;51.340;12.326;2022-09-13T07:31:47;16.20;99.90
15997;DHT22;8103;51.340;12.326;2022-09-13T07:34:16;16.30;99.90
15997;DHT22;8103;51.340;12.326;2022-09-13T07:36:44;16.30;99.90
15997;DHT22;8103;51.340;12.326;2022-09-13T07:39:13;16.40;99.90
15997;DHT22;8103;51.340;12.326;2022-09-13T07:41:44;16.60;99.90
15997;DHT22;8103;51.340;12.326;2022-09-13T07:44:12;16.70;99.90
15997;DHT22;8103;51.340;12.326;2022-09-13T07:46:39;16.80;99.90
15997;DHT22;8103;51.340;12.326;2022-09-13T07:49:11;17.00;99.90
15997;DHT22;8103;51.340;12.326;2022-09-13T07:51:40;17.10;99.90
15997;DHT22;8103;51.340;12.326;2022-09-13T07:54:13;17.10;99.90
15997;DHT22;8103;51.340;12.326;2022-09-13T07:56:41;17.10;99.90
15997;DHT22;8103;51.340;12.326;2022-09-13T07:59:14;17.10;99.90
15997;DHT22;8103;51.340;12.326;2022-09-13T08:01:46;17.10;99.90
15997;DHT22;8103;51.340;12.326;2022-09-13T08:04:16;17.10;99.90
15997;DHT22;8103;51.340;12.326;2022-09-13T08:06:44;17.30;99.90
15997;DHT22;8103;51.340;12.326;2022-09-13T08:09:12;17.30;99.90
15997;DHT22;8103;51.340;12.326;2022-09-13T08:11:45;17.30;99.90
15997;DHT22;8103;51.340;12.326;2022-09-13T08:14:14;17.50;99.90
15997;DHT22;8103;51.340;12.326;2022-09-13T08:16:41;17.40;99.90
15997;DHT22;8103;51.340;12.326;2022-09-13T08:19:12;17.40;99.90
15997;DHT22;8103;51.340;12.326;2022-09-13T08:21:39;17.50;99.90
15997;DHT22;8103;51.340;12.326;2022-09-13T08:24:13;17.60;99.90
15997;DHT22;8103;51.340;12.326;2022-09-13T08:26:40;17.80;99.90
15997;DHT22;8103;51.340;12.326;2022-09-13T08:29:07;17.90;99.90
15997;DHT22;8103;51.340;12.326;2022-09-13T08:31:34;18.00;99.90
15997;DHT22;8103;51.340;12.326;2022-09-13T08:34:01;18.10;99.90
15997;DHT22;8103;51.340;12.326;2022-09-13T08:36:28;18.40;99.90
15997;DHT22;8103;51.340;12.326;2022-09-13T08:38:59;18.50;99.90
15997;DHT22;8103;51.340;12.326;2022-09-13T08:41:58;18.80;99.90
15997;DHT22;8103;51.340;12.326;2022-09-13T08:44:33;18.90;99.90
15997;DHT22;8103;51.340;12.326;2022-09-13T08:50:02;18.70;99.90
15997;DHT22;8103;51.340;12.326;2022-09-13T09:04:44;19.10;99.90
15997;DHT22;8103;51.340;12.326;2022-09-13T09:09:40;19.40;99.90
15997;DHT22;8103;51.340;12.326;2022-09-13T09:12:20;19.50;99.90
15997;DHT22;8103;51.340;12.326;2022-09-13T09:14:58;19.40;99.90
15997;DHT22;8103;51.340;12.326;2022-09-13T09:18:17;19.70;99.90
15997;DHT22;8103;51.340;12.326;2022-09-13T09:22:52;20.20;99.90
15997;DHT22;8103;51.340;12.326;2022-09-13T09:25:23;20.50;99.90
15997;DHT22;8103;51.340;12.326;2022-09-13T09:27:51;20.70;99.90
15997;DHT22;8103;51.340;12.326;2022-09-13T09:30:19;20.90;99.90
15997;DHT22;8103;51.340;12.326;2022-09-13T09:35:51;21.20;99.90
15997;DHT22;8103;51.340;12.326;2022-09-13T09:38:42;21.30;99.90
15997;DHT22;8103;51.340;12.326;2022-09-13T09:41:26;22.00;99.90
15997;DHT22;8103;51.340;12.326;2022-09-13T09:44:00;22.90;99.90
15997;DHT22;8103;51.340;12.326;2022-09-13T09:46:30;23.20;99.90
15997;DHT22;8103;51.340;12.326;2022-09-13T09:49:18;23.20;99.20
15997;DHT22;8103;51.340;12.326;2022-09-13T09:52:06;23.00;99.30
15997;DHT22;8103;51.340;12.326;2022-09-13T09:54:36;22.90;99.60
15997;DHT22;8103;51.340;12.326;2022-09-13T09:57:06;23.10;98.50
15997;DHT22;8103;51.340;12.326;2022-09-13T09:59:34;23.40;97.40
15997;DHT22;8103;51.340;12.326;2022-09-13T10:02:15;24.10;96.40
15997;DHT22;8103;51.340;12.326;2022-09-13T10:04:53;25.10;91.70
15997;DHT22;8103;51.340;12.326;2022-09-13T10:07:23;25.80;87.50
15997;DHT22;8103;51.340;12.326;2022-09-13T10:10:21;26.10;83.00
15997;DHT22;8103;51.340;12.326;2022-09-13T10:12:52;26.60;80.90
15997;DHT22;8103;51.340;12.326;2022-09-13T10:15:25;27.30;77.50
15997;DHT22;8103;51.340;12.326;2022-09-13T10:18:14;27.50;73.80
15997;DHT22;8103;51.340;12.326;2022-09-13T10:21:09;27.10;73.70
15997;DHT22;8103;51.340;12.326;2022-09-13T10:23:46;26.70;73.80
15997;DHT22;8103;51.340;12.326;2022-09-13T10:26:19;26.60;72.70
15997;DHT22;8103;51.340;12.326;2022-09-13T10:31:19;26.70;70.50
15997;DHT22;8103;51.340;12.326;2022-09-13T10:36:28;27.00;69.60
15997;DHT22;8103;51.340;12.326;2022-09-13T10:39:18;27.10;68.80
15997;DHT22;8103;51.340;12.326;2022-09-13T10:44:27;26.50;70.50
15997;DHT22;8103;51.340;12.326;2022-09-13T10:46:54;26.40;70.60
15997;DHT22;8103;51.340;12.326;2022-09-13T10:49:47;26.60;70.60
15997;DHT22;8103;51.340;12.326;2022-09-13T10:57:48;26.50;69.50
15997;DHT22;8103;51.340;12.326;2022-09-13T11:00:19;26.20;70.30
15997;DHT22;8103;51.340;12.326;2022-09-13T11:06:15;25.30;73.70
15997;DHT22;8103;51.340;12.326;2022-09-13T11:09:10;25.00;75.20
15997;DHT22;8103;51.340;12.326;2022-09-13T11:11:55;24.90;76.60
15997;DHT22;8103;51.340;12.326;2022-09-13T11:15:00;25.60;75.60
15997;DHT22;8103;51.340;12.326;2022-09-13T11:17:57;26.70;70.60
15997;DHT22;8103;51.340;12.326;2022-09-13T11:21:19;27.30;68.00
15997;DHT22;8103;51.340;12.326;2022-09-13T11:29:54;30.00;60.30
15997;DHT22;8103;51.340;12.326;2022-09-13T11:38:04;30.80;56.50
15997;DHT22;8103;51.340;12.326;2022-09-13T11:43:48;29.40;58.80
15997;DHT22;8103;51.340;12.326;2022-09-13T11:46:33;29.00;59.40
15997;DHT22;8103;51.340;12.326;2022-09-13T11:54:49;28.50;61.40
15997;DHT22;8103;51.340;12.326;2022-09-13T11:57:33;28.40;61.70
15997;DHT22;8103;51.340;12.326;2022-09-13T12:05:50;28.50;62.20
15997;DHT22;8103;51.340;12.326;2022-09-13T12:08:43;28.90;60.80
15997;DHT22;8103;51.340;12.326;2022-09-13T12:11:35;29.60;59.50
15997;DHT22;8103;51.340;12.326;2022-09-13T12:14:05;30.30;58.00
15997;DHT22;8103;51.340;12.326;2022-09-13T12:16:37;29.80;57.70
15997;DHT22;8103;51.340;12.326;2022-09-13T12:19:26;29.00;59.70
15997;DHT22;8103;51.340;12.326;2022-09-13T12:21:55;28.00;62.20
15997;DHT22;8103;51.340;12.326;2022-09-13T12:24:55;27.40;64.10
15997;DHT22;8103;51.340;12.326;2022-09-13T12:27:40;27.00;65.70
15997;DHT22;8103;51.340;12.326;2022-09-13T12:30:27;26.60;67.30
15997;DHT22;8103;51.340;12.326;2022-09-13T12:32:59;26.20;68.80
15997;DHT22;8103;51.340;12.326;2022-09-13T12:35:52;26.00;69.60
15997;DHT22;8103;51.340;12.326;2022-09-13T12:41:34;26.00;69.30
15997;DHT22;8103;51.340;12.326;2022-09-13T13:01:37;26.30;64.20
15997;DHT22;8103;51.340;12.326;2022-09-13T13:04:17;25.80;65.90
15997;DHT22;8103;51.340;12.326;2022-09-13T13:12:09;24.70;70.30
15997;DHT22;8103;51.340;12.326;2022-09-13T13:17:37;24.40;71.70
15997;DHT22;8103;51.340;12.326;2022-09-13T13:20:39;24.30;72.20
15997;DHT22;8103;51.340;12.326;2022-09-13T13:23:26;24.40;72.20
15997;DHT22;8103;51.340;12.326;2022-09-13T13:28:48;24.80;71.30
15997;DHT22;8103;51.340;12.326;2022-09-13T13:33:54;25.50;69.70
15997;DHT22;8103;51.340;12.326;2022-09-13T13:42:09;26.90;65.70
15997;DHT22;8103;51.340;12.326;2022-09-13T13:57:27;27.50;63.50
15997;DHT22;8103;51.340;12.326;2022-09-13T14:00:12;27.50;63.60
15997;DHT22;8103;51.340;12.326;2022-09-13T14:03:04;27.60;63.90
15997;DHT22;8103;51.340;12.326;2022-09-13T14:05:47;29.10;60.00
15997;DHT22;8103;51.340;12.326;2022-09-13T14:14:27;33.90;46.90
15997;DHT22;8103;51.340;12.326;2022-09-13T14:17:28;34.30;45.30
15997;DHT22;8103;51.340;12.326;2022-09-13T14:20:11;33.50;45.10
15997;DHT22;8103;51.340;12.326;2022-09-13T14:22:40;32.00;47.50
15997;DHT22;8103;51.340;12.326;2022-09-13T14:27:51;29.00;53.40
15997;DHT22;8103;51.340;12.326;2022-09-13T14:30:23;27.90;55.40
15997;DHT22;8103;51.340;12.326;2022-09-13T14:32:54;27.20;57.60
15997;DHT22;8103;51.340;12.326;2022-09-13T14:35:28;26.50;59.50
15997;DHT22;8103;51.340;12.326;2022-09-13T14:40:37;25.60;62.60
15997;DHT22;8103;51.340;12.326;2022-09-13T14:43:16;25.30;64.20
15997;DHT22;8103;51.340;12.326;2022-09-13T14:45:46;25.10;66.40
15997;DHT22;8103;51.340;12.326;2022-09-13T14:48:20;24.90;67.60
15997;DHT22;8103;51.340;12.326;2022-09-13T14:53:40;24.70;68.80
15997;DHT22;8103;51.340;12.326;2022-09-13T14:56:23;24.60;69.70
15997;DHT22;8103;51.340;12.326;2022-09-13T14:58:54;24.50;70.50
15997;DHT22;8103;51.340;12.326;2022-09-13T15:01:30;24.30;71.20
15997;DHT22;8103;51.340;12.326;2022-09-13T15:03:59;24.20;71.80
15997;DHT22;8103;51.340;12.326;2022-09-13T15:06:35;24.10;72.90
15997;DHT22;8103;51.340;12.326;2022-09-13T15:11:41;23.90;76.60
15997;DHT22;8103;51.340;12.326;2022-09-13T15:14:17;23.80;77.20
15997;DHT22;8103;51.340;12.326;2022-09-13T15:16:48;23.80;77.80
15997;DHT22;8103;51.340;12.326;2022-09-13T15:19:27;23.70;78.10
15997;DHT22;8103;51.340;12.326;2022-09-13T15:22:10;23.70;78.50
15997;DHT22;8103;51.340;12.326;2022-09-13T15:24:42;23.70;79.10
15997;DHT22;8103;51.340;12.326;2022-09-13T15:29:56;23.70;79.30
15997;DHT22;8103;51.340;12.326;2022-09-13T15:32:42;24.00;79.30
15997;DHT22;8103;51.340;12.326;2022-09-13T15:35:25;24.20;78.60
15997;DHT22;8103;51.340;12.326;2022-09-13T15:40:42;24.50;77.70
15997;DHT22;8103;51.340;12.326;2022-09-13T15:43:09;24.50;78.30
15997;DHT22;8103;51.340;12.326;2022-09-13T15:45:36;24.40;79.00
15997;DHT22;8103;51.340;12.326;2022-09-13T15:48:04;24.20;79.80
15997;DHT22;8103;51.340;12.326;2022-09-13T15:50:32;24.20;80.40
15997;DHT22;8103;51.340;12.326;2022-09-13T15:53:00;24.10;80.90
15997;DHT22;8103;51.340;12.326;2022-09-13T15:55:27;24.00;81.40
15997;DHT22;8103;51.340;12.326;2022-09-13T15:57:54;23.90;81.90
15997;DHT22;8103;51.340;12.326;2022-09-13T16:00:23;23.80;82.30
15997;DHT22;8103;51.340;12.326;2022-09-13T16:02:51;23.80;83.00
15997;DHT22;8103;51.340;12.326;2022-09-13T16:05:18;23.80;83.50
15997;DHT22;8103;51.340;12.326;2022-09-13T16:07:45;23.80;83.70
15997;DHT22;8103;51.340;12.326;2022-09-13T16:10:19;23.70;84.30
15997;DHT22;8103;51.340;12.326;2022-09-13T16:12:46;23.60;85.00
15997;DHT22;8103;51.340;12.326;2022-09-13T16:15:15;23.60;85.40
15997;DHT22;8103;51.340;12.326;2022-09-13T16:17:42;23.50;85.60
15997;DHT22;8103;51.340;12.326;2022-09-13T16:20:12;23.40;86.10
15997;DHT22;8103;51.340;12.326;2022-09-13T16:22:39;23.40;86.40
15997;DHT22;8103;51.340;12.326;2022-09-13T16:25:08;23.40;87.50
15997;DHT22;8103;51.340;12.326;2022-09-13T16:27:35;23.40;87.10
15997;DHT22;8103;51.340;12.326;2022-09-13T16:30:03;23.40;88.30
15997;DHT22;8103;51.340;12.326;2022-09-13T16:32:30;23.30;88.00
15997;DHT22;8103;51.340;12.326;2022-09-13T16:34:57;23.30;88.60
15997;DHT22;8103;51.340;12.326;2022-09-13T16:37:24;23.20;89.10
15997;DHT22;8103;51.340;12.326;2022-09-13T16:39:50;23.20;89.50
15997;DHT22;8103;51.340;12.326;2022-09-13T16:42:18;23.10;89.90
15997;DHT22;8103;51.340;12.326;2022-09-13T16:44:45;23.10;90.10
15997;DHT22;8103;51.340;12.326;2022-09-13T16:47:12;23.10;90.30
15997;DHT22;8103;51.340;12.326;2022-09-13T16:49:40;23.10;90.40
15997;DHT22;8103;51.340;12.326;2022-09-13T16:52:07;23.00;90.60
15997;DHT22;8103;51.340;12.326;2022-09-13T16:54:35;22.90;90.90
15997;DHT22;8103;51.340;12.326;2022-09-13T16:57:03;22.70;91.10
15997;DHT22;8103;51.340;12.326;2022-09-13T16:59:34;22.60;92.20
15997;DHT22;8103;51.340;12.326;2022-09-13T17:02:00;22.40;93.00
15997;DHT22;8103;51.340;12.326;2022-09-13T17:04:27;22.30;93.40
15997;DHT22;8103;51.340;12.326;2022-09-13T17:06:55;22.20;94.00
15997;DHT22;8103;51.340;12.326;2022-09-13T17:09:22;22.00;94.50
15997;DHT22;8103;51.340;12.326;2022-09-13T17:11:52;21.80;94.90
15997;DHT22;8103;51.340;12.326;2022-09-13T17:14:19;21.70;95.20
15997;DHT22;8103;51.340;12.326;2022-09-13T17:16:53;21.70;95.50
15997;DHT22;8103;51.340;12.326;2022-09-13T17:19:25;21.60;95.90
15997;DHT22;8103;51.340;12.326;2022-09-13T17:21:53;21.50;96.50
15997;DHT22;8103;51.340;12.326;2022-09-13T17:24:24;21.40;96.60
15997;DHT22;8103;51.340;12.326;2022-09-13T17:26:51;21.30;96.80
15997;DHT22;8103;51.340;12.326;2022-09-13T17:29:18;21.30;96.90
15997;DHT22;8103;51.340;12.326;2022-09-13T17:31:45;21.30;97.20
15997;DHT22;8103;51.340;12.326;2022-09-13T17:34:12;21.30;97.60
15997;DHT22;8103;51.340;12.326;2022-09-13T17:36:40;21.20;97.80
15997;DHT22;8103;51.340;12.326;2022-09-13T17:39:07;21.20;97.90
15997;DHT22;8103;51.340;12.326;2022-09-13T17:41:34;21.10;98.20
15997;DHT22;8103;51.340;12.326;2022-09-13T17:44:02;21.10;98.60
15997;DHT22;8103;51.340;12.326;2022-09-13T17:46:29;21.10;98.90
15997;DHT22;8103;51.340;12.326;2022-09-13T17:48:58;21.00;99.20
15997;DHT22;8103;51.340;12.326;2022-09-13T17:51:27;21.00;99.30
15997;DHT22;8103;51.340;12.326;2022-09-13T17:53:56;20.90;99.60
15997;DHT22;8103;51.340;12.326;2022-09-13T17:56:35;20.90;99.70
15997;DHT22;8103;51.340;12.326;2022-09-13T18:01:51;20.80;99.90
15997;DHT22;8103;51.340;12.326;2022-09-13T18:04:21;20.70;99.90
15997;DHT22;8103;51.340;12.326;2022-09-13T18:06:50;20.60;99.90
15997;DHT22;8103;51.340;12.326;2022-09-13T18:09:18;20.60;99.90
15997;DHT22;8103;51.340;12.326;2022-09-13T18:11:45;20.50;99.90
15997;DHT22;8103;51.340;12.326;2022-09-13T18:14:14;20.50;99.90
15997;DHT22;8103;51.340;12.326;2022-09-13T18:16:41;20.40;99.90
15997;DHT22;8103;51.340;12.326;2022-09-13T18:19:09;20.30;99.90
15997;DHT22;8103;51.340;12.326;2022-09-13T18:21:36;20.20;99.90
15997;DHT22;8103;51.340;12.326;2022-09-13T18:24:03;20.20;99.90
15997;DHT22;8103;51.340;12.326;2022-09-13T18:26:30;20.10;99.90
15997;DHT22;8103;51.340;12.326;2022-09-13T18:29:01;20.10;99.90
15997;DHT22;8103;51.340;12.326;2022-09-13T18:31:30;20.00;99.90
15997;DHT22;8103;51.340;12.326;2022-09-13T18:33:59;20.00;99.90
15997;DHT22;8103;51.340;12.326;2022-09-13T18:36:27;19.90;99.90
15997;DHT22;8103;51.340;12.326;2022-09-13T18:38:55;19.90;99.90
15997;DHT22;8103;51.340;12.326;2022-09-13T18:41:24;19.90;99.90
15997;DHT22;8103;51.340;12.326;2022-09-13T18:43:53;19.90;99.90
15997;DHT22;8103;51.340;12.326;2022-09-13T18:46:24;19.80;99.90
15997;DHT22;8103;51.340;12.326;2022-09-13T18:48:53;19.80;99.90
15997;DHT22;8103;51.340;12.326;2022-09-13T18:51:22;19.80;99.90
15997;DHT22;8103;51.340;12.326;2022-09-13T18:53:50;19.80;99.90
15997;DHT22;8103;51.340;12.326;2022-09-13T18:56:18;19.70;99.90
15997;DHT22;8103;51.340;12.326;2022-09-13T18:58:46;19.80;99.90